Time;durP1;ratioP1;P1;durP2;ratioP2;P2;SDS_P1;SDS_P2;PMS_P1;PMS_P2;Temp;Humidity;BMP_temperature;BMP_pressure;BME280_temperature;BME280_humidity;BME280_pressure;Samples;Min_cycle;Max_cycle;Signal;HPM_P1;HPM_P2
2021/05/03 00:02:16;;;;;;;6.40;5.37;;;6.50;99.90;;;;;;5030550;28;20829;-49
2021/05/03 00:04:42;;;;;;;7.00;5.50;;;6.50;99.90;;;;;;5013400;28;20486;-48
2021/05/03 00:07:09;;;;;;;6.60;5.23;;;6.50;99.90;;;;;;5014220;28;20460;-49
2021/05/03 00:09:35;;;;;;;6.10;5.40;;;6.50;99.90;;;;;;5014185;28;20943;-48
2021/05/03 00:12:03;;;;;;;6.93;5.40;;;6.60;99.90;;;;;;5013658;28;20520;-49
2021/05/03 00:14:33;;;;;;;6.80;5.93;;;6.60;99.90;;;;;;5024743;28;20494;-49
2021/05/03 00:16:59;;;;;;;7.70;5.90;;;6.60;99.90;;;;;;5033668;28;20498;-48
2021/05/03 00:19:26;;;;;;;7.73;5.90;;;6.50;99.90;;;;;;5033624;28;20461;-49
2021/05/03 00:21:52;;;;;;;6.80;5.50;;;6.40;99.90;;;;;;5033834;28;20452;-49
2021/05/03 00:24:19;;;;;;;7.00;5.43;;;6.40;99.90;;;;;;5013568;28;20487;-48
2021/05/03 00:26:45;;;;;;;8.07;6.17;;;6.30;99.90;;;;;;5013454;28;20523;-48
2021/05/03 00:29:13;;;;;;;7.17;5.50;;;6.30;99.90;;;;;;5013939;28;20458;-48
2021/05/03 00:31:39;;;;;;;8.17;5.97;;;6.20;99.90;;;;;;5013592;28;20455;-49
2021/05/03 00:34:05;;;;;;;7.63;5.60;;;6.20;99.90;;;;;;5012965;28;20474;-49
2021/05/03 00:36:32;;;;;;;7.03;5.40;;;6.10;99.90;;;;;;5013220;28;20455;-49
2021/05/03 00:38:58;;;;;;;6.53;5.30;;;6.30;99.90;;;;;;5013428;28;20946;-49
2021/05/03 00:41:25;;;;;;;7.17;5.70;;;6.30;99.90;;;;;;5017829;28;20874;-49
2021/05/03 00:43:51;;;;;;;6.63;5.70;;;6.30;99.90;;;;;;5017282;28;20485;-49
2021/05/03 00:46:20;;;;;;;8.43;6.50;;;6.30;99.90;;;;;;5013117;28;20816;-48
2021/05/03 00:48:47;;;;;;;7.73;5.60;;;6.20;99.90;;;;;;5013309;28;20820;-49
2021/05/03 00:51:14;;;;;;;6.40;5.33;;;6.20;99.90;;;;;;5012834;28;20456;-49
2021/05/03 00:53:40;;;;;;;8.67;6.20;;;6.30;99.90;;;;;;5012005;28;21137;-48
2021/05/03 00:56:08;;;;;;;8.63;6.70;;;6.40;99.90;;;;;;5024682;28;20448;-48
2021/05/03 00:58:35;;;;;;;10.33;6.60;;;6.30;99.90;;;;;;5032970;28;20453;-48
2021/05/03 01:01:01;;;;;;;7.90;6.30;;;6.20;99.90;;;;;;5032851;28;20464;-49
2021/05/03 01:03:29;;;;;;;7.87;6.50;;;6.20;99.90;;;;;;5023662;28;20519;-49
2021/05/03 01:05:56;;;;;;;8.33;6.20;;;6.30;99.90;;;;;;5025376;28;20477;-48
2021/05/03 01:08:22;;;;;;;6.90;5.33;;;6.30;99.90;;;;;;5012726;28;20511;-48
2021/05/03 01:10:49;;;;;;;7.20;5.50;;;6.30;99.90;;;;;;5022153;28;20476;-48
2021/05/03 01:13:15;;;;;;;8.47;6.50;;;6.40;99.90;;;;;;5012524;28;20453;-49
2021/05/03 01:15:42;;;;;;;6.93;5.50;;;6.50;99.90;;;;;;5013867;28;20484;-48
2021/05/03 01:18:08;;;;;;;7.53;6.17;;;6.40;99.90;;;;;;5016011;28;20527;-49
2021/05/03 01:20:37;;;;;;;9.03;6.93;;;6.50;99.90;;;;;;5012613;28;20482;-49
2021/05/03 01:23:06;;;;;;;8.13;6.67;;;6.40;99.90;;;;;;5017303;28;20950;-49
2021/05/03 01:25:34;;;;;;;8.20;6.13;;;6.30;99.90;;;;;;5011146;28;20918;-49
2021/05/03 01:28:02;;;;;;;10.50;6.67;;;6.30;99.90;;;;;;5019781;28;20879;-49
2021/05/03 01:30:31;;;;;;;8.60;6.53;;;6.40;99.90;;;;;;5032482;28;20479;-48
2021/05/03 01:32:58;;;;;;;8.80;6.10;;;6.40;99.90;;;;;;5012168;28;20449;-48
2021/05/03 01:35:25;;;;;;;7.63;6.47;;;6.40;99.90;;;;;;5012200;28;20496;-49
2021/05/03 01:37:53;;;;;;;8.13;6.50;;;6.60;99.90;;;;;;5012206;28;20452;-49
2021/05/03 01:40:22;;;;;;;8.60;6.43;;;6.50;99.90;;;;;;5012667;28;20881;-48
2021/05/03 01:42:49;;;;;;;6.87;5.80;;;6.50;99.90;;;;;;5012330;28;20463;-49
2021/05/03 01:45:19;;;;;;;8.40;6.30;;;6.50;99.90;;;;;;5011942;28;20998;-48
2021/05/03 01:47:46;;;;;;;7.60;6.07;;;6.50;99.90;;;;;;5012643;28;20453;-48
2021/05/03 01:50:14;;;;;;;8.63;6.37;;;6.50;99.90;;;;;;5011951;28;20505;-47
2021/05/03 01:52:42;;;;;;;8.23;6.00;;;6.50;99.90;;;;;;5012103;28;20499;-47
2021/05/03 01:55:09;;;;;;;8.97;6.00;;;6.40;99.90;;;;;;5011872;28;20474;-47
2021/05/03 01:57:37;;;;;;;8.10;6.23;;;6.40;99.90;;;;;;5032021;28;20452;-47
2021/05/03 02:00:05;;;;;;;6.70;5.60;;;6.50;99.90;;;;;;5019827;28;20882;-48
2021/05/03 02:02:32;;;;;;;6.70;5.57;;;6.60;99.90;;;;;;5012203;28;20461;-47
2021/05/03 02:04:58;;;;;;;5.70;5.00;;;6.60;99.90;;;;;;5011031;28;20512;-48
2021/05/03 02:07:25;;;;;;;7.37;5.97;;;6.70;99.90;;;;;;5011822;28;20449;-48
2021/05/03 02:09:51;;;;;;;7.53;6.03;;;6.70;99.90;;;;;;5011339;28;20453;-48
2021/05/03 02:12:18;;;;;;;8.13;6.17;;;6.80;99.90;;;;;;5020456;28;20452;-47
2021/05/03 02:14:45;;;;;;;7.60;5.80;;;6.60;99.90;;;;;;5031361;28;20478;-47
2021/05/03 02:17:12;;;;;;;9.13;6.40;;;6.60;99.90;;;;;;5031723;28;20467;-47
2021/05/03 02:19:39;;;;;;;8.27;6.17;;;6.50;99.90;;;;;;5023713;28;20445;-48
2021/05/03 02:22:06;;;;;;;7.80;6.13;;;6.60;99.90;;;;;;5011738;28;20940;-47
2021/05/03 02:24:32;;;;;;;8.07;6.17;;;6.60;99.90;;;;;;5011733;28;20496;-48
2021/05/03 02:26:59;;;;;;;9.60;6.77;;;6.60;99.90;;;;;;5012297;28;20947;-47
2021/05/03 02:29:25;;;;;;;10.10;7.00;;;6.60;99.90;;;;;;4997636;28;20523;-48
2021/05/03 02:31:52;;;;;;;8.63;7.00;;;6.60;99.90;;;;;;5011525;28;20449;-47
2021/05/03 02:34:19;;;;;;;10.40;7.13;;;6.60;99.90;;;;;;5011338;28;20837;-48
2021/05/03 02:36:45;;;;;;;10.53;7.67;;;6.50;99.90;;;;;;5011392;28;20507;-48
2021/05/03 02:39:12;;;;;;;12.00;7.67;;;6.50;99.90;;;;;;5011197;28;22309;-47
2021/05/03 02:41:38;;;;;;;9.90;7.43;;;6.40;99.90;;;;;;5011416;28;20950;-48
2021/05/03 02:44:05;;;;;;;9.00;6.90;;;6.30;99.90;;;;;;5012380;28;20882;-47
2021/05/03 02:46:32;;;;;;;12.90;8.33;;;6.40;99.90;;;;;;5011082;28;20811;-48
2021/05/03 02:48:59;;;;;;;12.40;8.10;;;6.40;99.90;;;;;;5011358;28;20449;-48
2021/05/03 02:51:27;;;;;;;13.00;8.60;;;6.50;99.90;;;;;;4994368;28;20963;-48
2021/05/03 02:53:54;;;;;;;11.10;8.00;;;6.60;99.90;;;;;;4992092;28;20461;-48
2021/05/03 02:56:20;;;;;;;8.50;6.80;;;6.50;99.90;;;;;;4991754;28;20513;-48
2021/05/03 02:58:46;;;;;;;10.83;7.57;;;6.50;99.90;;;;;;4991939;28;20454;-48
2021/05/03 03:01:13;;;;;;;9.93;7.57;;;6.50;99.90;;;;;;5011349;28;20456;-48
2021/05/03 03:03:39;;;;;;;10.20;7.40;;;6.50;99.90;;;;;;5011294;28;20453;-48
2021/05/03 03:06:07;;;;;;;10.50;7.63;;;6.40;99.90;;;;;;5010821;28;20980;-48
2021/05/03 03:08:33;;;;;;;11.57;7.17;;;6.30;99.90;;;;;;5011478;28;20449;-48
2021/05/03 03:10:59;;;;;;;11.40;7.70;;;6.40;99.90;;;;;;5011151;28;20461;-48
2021/05/03 03:13:26;;;;;;;8.43;6.63;;;6.50;99.90;;;;;;5011208;28;20461;-47
2021/05/03 03:15:52;;;;;;;11.20;7.90;;;6.40;99.90;;;;;;5032396;23;20524;-51
2021/05/03 03:18:20;;;;;;;10.33;7.67;;;6.40;99.90;;;;;;5014624;28;20456;-51
2021/05/03 03:20:47;;;;;;;12.03;7.60;;;6.40;99.90;;;;;;5014138;28;20511;-51
2021/05/03 03:23:14;;;;;;;11.07;7.50;;;6.40;99.90;;;;;;5015103;28;20449;-52
2021/05/03 03:25:40;;;;;;;10.57;7.60;;;6.40;99.90;;;;;;5028175;28;20480;-51
2021/05/03 03:28:08;;;;;;;11.97;7.83;;;6.40;99.90;;;;;;5034778;28;20463;-51
2021/05/03 03:30:34;;;;;;;11.03;7.33;;;6.40;99.90;;;;;;5034324;28;20460;-51
2021/05/03 03:33:01;;;;;;;8.83;6.73;;;6.50;99.90;;;;;;5034124;28;20451;-51
2021/05/03 03:35:28;;;;;;;11.37;7.80;;;6.40;99.90;;;;;;5034212;28;20468;-52
2021/05/03 03:37:55;;;;;;;10.70;8.30;;;6.40;99.90;;;;;;5034496;28;20499;-52
2021/05/03 03:40:23;;;;;;;11.70;8.37;;;6.50;99.90;;;;;;5034435;28;20452;-51
2021/05/03 03:42:49;;;;;;;11.17;8.53;;;6.50;99.90;;;;;;5034160;28;20484;-51
2021/05/03 03:45:17;;;;;;;12.00;8.07;;;6.40;99.90;;;;;;5033724;28;21016;-51
2021/05/03 03:47:44;;;;;;;12.67;9.30;;;6.40;99.90;;;;;;5034384;28;20488;-51
2021/05/03 03:50:11;;;;;;;13.10;8.90;;;6.10;99.90;;;;;;5033584;28;20449;-52
2021/05/03 03:52:38;;;;;;;11.80;8.30;;;5.90;99.90;;;;;;5034205;28;20450;-52
2021/05/03 03:55:05;;;;;;;13.20;8.57;;;6.00;99.90;;;;;;5033424;28;20472;-52
2021/05/03 03:57:32;;;;;;;12.17;7.50;;;6.10;99.90;;;;;;5033634;28;20452;-52
2021/05/03 03:59:59;;;;;;;13.50;8.87;;;6.20;99.90;;;;;;5033815;28;20452;-51
2021/05/03 04:02:27;;;;;;;13.30;8.97;;;6.30;99.90;;;;;;5034067;28;20543;-51
2021/05/03 04:05:07;;;;;;;12.97;8.60;;;6.30;99.90;;;;;;5033762;28;20843;-51
2021/05/03 04:07:37;;;;;;;12.97;9.07;;;6.20;99.90;;;;;;5034040;28;20458;-51
2021/05/03 04:10:13;;;;;;;12.97;9.00;;;6.20;99.90;;;;;;5033439;28;20872;-51
2021/05/03 04:12:54;;;;;;;11.87;8.53;;;6.30;99.90;;;;;;5033806;28;20544;-50
2021/05/03 04:21:08;;;;;;;15.23;9.43;;;6.20;99.90;;;;;;5025887;28;20467;-50
2021/05/03 04:26:10;;;;;;;14.60;10.57;;;6.30;99.90;;;;;;5029254;28;20443;-51
2021/05/03 04:28:37;;;;;;;14.13;10.03;;;6.10;99.90;;;;;;5025256;28;20449;-51
2021/05/03 04:31:04;;;;;;;15.93;10.53;;;6.20;99.90;;;;;;5033180;28;20464;-51
2021/05/03 04:33:30;;;;;;;14.47;10.57;;;6.40;99.90;;;;;;5033060;28;20451;-51
2021/05/03 04:35:58;;;;;;;13.87;10.10;;;6.30;99.90;;;;;;5032678;28;20463;-51
2021/05/03 04:38:25;;;;;;;14.83;11.03;;;6.30;99.90;;;;;;5033071;28;20835;-51
2021/05/03 04:40:51;;;;;;;15.60;11.10;;;6.40;99.90;;;;;;5032887;28;20445;-51
2021/05/03 04:43:18;;;;;;;15.73;10.40;;;6.80;99.90;;;;;;5033360;28;20448;-51
2021/05/03 04:45:45;;;;;;;13.30;9.47;;;7.10;99.90;;;;;;5032545;28;20494;-51
2021/05/03 04:48:12;;;;;;;13.60;9.00;;;7.40;99.90;;;;;;5033093;28;20460;-51
2021/05/03 04:50:38;;;;;;;11.80;8.93;;;7.50;99.90;;;;;;5024262;28;20458;-51
2021/05/03 04:53:05;;;;;;;12.93;8.93;;;7.40;99.90;;;;;;5017042;28;20848;-51
2021/05/03 04:55:32;;;;;;;13.10;9.47;;;7.10;99.90;;;;;;5032715;28;20498;-51
2021/05/03 04:57:58;;;;;;;11.97;8.47;;;7.00;99.90;;;;;;5032770;28;20448;-51
2021/05/03 05:00:24;;;;;;;11.97;8.73;;;7.00;99.90;;;;;;5031343;28;20444;-51
2021/05/03 05:02:52;;;;;;;13.23;9.17;;;7.20;99.90;;;;;;5032429;28;20462;-52
2021/05/03 05:05:19;;;;;;;12.17;8.70;;;7.00;99.90;;;;;;5031923;28;20492;-52
2021/05/03 05:07:45;;;;;;;13.70;9.80;;;6.70;99.90;;;;;;5032507;28;20456;-52
2021/05/03 05:10:13;;;;;;;17.03;9.60;;;6.60;99.90;;;;;;5032723;28;20525;-52
2021/05/03 05:12:39;;;;;;;14.83;9.60;;;6.60;99.90;;;;;;5032334;28;20448;-52
2021/05/03 05:15:07;;;;;;;15.93;10.33;;;6.70;99.90;;;;;;5032143;28;20479;-52
2021/05/03 05:17:36;;;;;;;16.50;10.20;;;6.80;99.90;;;;;;5031637;28;20907;-52
2021/05/03 05:20:04;;;;;;;13.00;9.30;;;6.80;99.90;;;;;;5032744;28;20449;-52
2021/05/03 05:22:31;;;;;;;17.10;10.10;;;6.90;99.90;;;;;;5032479;28;20459;-52
2021/05/03 05:25:00;;;;;;;16.77;10.13;;;7.20;99.90;;;;;;5032327;28;20861;-52
2021/05/03 05:27:26;;;;;;;13.70;9.90;;;7.30;99.90;;;;;;5031934;28;20448;-52
2021/05/03 05:29:53;;;;;;;14.87;10.70;;;7.40;99.90;;;;;;5031768;28;20464;-52
2021/05/03 05:32:20;;;;;;;16.03;10.50;;;7.50;99.90;;;;;;5031914;28;20882;-52
2021/05/03 05:34:46;;;;;;;14.37;10.07;;;7.30;99.90;;;;;;5031731;28;20472;-52
2021/05/03 05:37:13;;;;;;;14.23;9.77;;;7.40;99.90;;;;;;5031569;28;20460;-52
2021/05/03 05:39:40;;;;;;;14.67;10.17;;;7.40;99.90;;;;;;5032206;28;20445;-52
2021/05/03 05:42:07;;;;;;;14.57;10.40;;;7.40;99.90;;;;;;5031487;28;20453;-52
2021/05/03 05:44:34;;;;;;;14.83;9.80;;;7.70;99.90;;;;;;5032200;28;20915;-51
2021/05/03 05:47:00;;;;;;;12.87;9.23;;;8.20;99.90;;;;;;5030422;28;20453;-51
2021/05/03 05:49:29;;;;;;;12.57;8.93;;;8.60;99.90;;;;;;5031429;28;20452;-51
2021/05/03 05:51:55;;;;;;;9.93;8.00;;;8.90;99.90;;;;;;5031077;28;20597;-52
2021/05/03 05:54:23;;;;;;;9.30;7.47;;;9.60;99.90;;;;;;5031728;28;20468;-52
2021/05/03 05:56:49;;;;;;;7.87;6.97;;;10.60;99.90;;;;;;5025215;28;20949;-52
2021/05/03 05:59:16;;;;;;;9.90;7.50;;;10.90;99.90;;;;;;5030183;28;20444;-52
2021/05/03 06:01:44;;;;;;;9.10;7.30;;;11.30;99.90;;;;;;5031122;28;20449;-52
2021/05/03 06:04:11;;;;;;;9.43;7.10;;;11.80;99.90;;;;;;5031656;28;20455;-52
2021/05/03 06:06:37;;;;;;;8.93;6.73;;;12.30;99.90;;;;;;5031658;28;20459;-52
2021/05/03 06:09:04;;;;;;;12.33;6.93;;;12.80;99.90;;;;;;5031258;28;20452;-52
2021/05/03 06:11:32;;;;;;;7.77;6.80;;;12.50;99.90;;;;;;5018964;28;20461;-52
2021/05/03 06:13:58;;;;;;;8.47;6.83;;;12.50;99.90;;;;;;5031533;28;20452;-53
2021/05/03 06:16:25;;;;;;;7.13;6.43;;;12.50;99.90;;;;;;5031003;28;20479;-52
2021/05/03 06:18:51;;;;;;;8.30;6.97;;;12.40;99.90;;;;;;5030389;28;20460;-52
2021/05/03 06:21:18;;;;;;;8.57;6.97;;;11.20;99.90;;;;;;5030370;28;20884;-52
2021/05/03 06:23:45;;;;;;;8.50;7.40;;;10.80;99.90;;;;;;5029781;28;20452;-53
2021/05/03 06:26:11;;;;;;;9.43;7.30;;;10.40;99.90;;;;;;5031197;28;20515;-52
2021/05/03 06:28:38;;;;;;;10.83;8.33;;;9.80;99.90;;;;;;5031352;28;20445;-52
2021/05/03 06:31:05;;;;;;;9.70;7.30;;;9.20;99.90;;;;;;5031145;28;20452;-52
2021/05/03 06:33:32;;;;;;;10.07;7.80;;;8.90;99.90;;;;;;5030676;28;20452;-53
2021/05/03 06:35:58;;;;;;;9.60;7.90;;;8.80;99.90;;;;;;5030596;28;20473;-52
2021/05/03 06:38:25;;;;;;;12.00;8.10;;;8.80;99.90;;;;;;5027718;28;20543;-52
2021/05/03 06:40:52;;;;;;;11.50;8.83;;;8.90;99.90;;;;;;5025142;28;20460;-52
2021/05/03 06:43:18;;;;;;;9.20;7.70;;;9.80;99.90;;;;;;5031348;28;20452;-52
2021/05/03 06:45:46;;;;;;;8.60;7.70;;;10.70;99.90;;;;;;5030421;28;20927;-52
2021/05/03 06:48:13;;;;;;;7.93;6.70;;;12.00;99.90;;;;;;5029872;28;20444;-53
2021/05/03 06:50:41;;;;;;;7.70;6.73;;;13.20;99.90;;;;;;5031502;28;20479;-52
2021/05/03 06:53:08;;;;;;;7.60;6.50;;;13.70;99.90;;;;;;5034465;28;21028;-53
2021/05/03 06:55:35;;;;;;;7.47;6.67;;;13.70;99.90;;;;;;5035004;28;20468;-52
2021/05/03 06:58:01;;;;;;;7.63;6.67;;;14.00;99.90;;;;;;5035362;28;20506;-53
2021/05/03 07:00:28;;;;;;;7.57;6.77;;;14.30;99.90;;;;;;5035346;28;20506;-53
2021/05/03 07:02:55;;;;;;;7.00;6.30;;;15.10;99.90;;;;;;5035193;28;20447;-53
2021/05/03 07:05:21;;;;;;;7.80;7.00;;;15.70;99.90;;;;;;5034133;28;20550;-53
2021/05/03 07:07:48;;;;;;;10.60;7.27;;;15.90;99.90;;;;;;5035004;28;20456;-53
2021/05/03 07:10:15;;;;;;;8.43;7.47;;;16.10;99.90;;;;;;5035145;28;20453;-53
2021/05/03 07:12:44;;;;;;;7.50;6.23;;;15.90;99.90;;;;;;5034900;28;20460;-53
2021/05/03 07:15:13;;;;;;;7.23;6.50;;;16.30;99.90;;;;;;5034414;28;20472;-53
2021/05/03 07:17:40;;;;;;;7.60;6.80;;;16.40;99.90;;;;;;5034945;28;20509;-53
2021/05/03 07:20:09;;;;;;;7.07;6.37;;;16.90;99.90;;;;;;5034675;28;20448;-54
2021/05/03 07:22:37;;;;;;;7.17;6.47;;;17.10;99.90;;;;;;5033890;28;20457;-54
2021/05/03 07:25:05;;;;;;;7.43;6.73;;;17.50;99.90;;;;;;5028618;28;20492;-54
2021/05/03 07:27:32;;;;;;;6.53;5.93;;;16.70;99.90;;;;;;5033257;28;20453;-54
2021/05/03 07:29:58;;;;;;;6.83;6.13;;;17.30;99.90;;;;;;5026992;28;20448;-53
2021/05/03 07:32:25;;;;;;;6.33;5.70;;;18.00;99.90;;;;;;5036589;28;20805;-53
2021/05/03 07:34:52;;;;;;;6.77;6.17;;;18.20;99.90;;;;;;5040130;28;20468;-54
2021/05/03 07:37:19;;;;;;;8.03;5.40;;;17.90;99.90;;;;;;5029859;28;20441;-52
2021/05/03 07:39:45;;;;;;;6.73;6.03;;;17.30;99.90;;;;;;5034653;28;20524;-53
2021/05/03 07:42:12;;;;;;;6.47;5.87;;;17.60;99.90;;;;;;5034538;28;20453;-53
2021/05/03 07:44:39;;;;;;;8.77;7.13;;;17.30;99.90;;;;;;5026945;28;20567;-54
2021/05/03 07:47:05;;;;;;;7.80;6.40;;;17.80;99.90;;;;;;5037330;28;20468;-54
2021/05/03 07:49:32;;;;;;;6.40;5.80;;;17.60;99.90;;;;;;5033222;28;20456;-53
2021/05/03 07:51:59;;;;;;;7.20;6.50;;;17.70;99.90;;;;;;5018525;28;20449;-54
2021/05/03 07:54:26;;;;;;;7.90;6.77;;;16.20;99.90;;;;;;5018525;28;20468;-54
2021/05/03 07:56:53;;;;;;;6.50;5.90;;;16.00;99.90;;;;;;5031522;28;20582;-54
2021/05/03 07:59:20;;;;;;;6.47;5.90;;;16.70;99.90;;;;;;5032800;28;20213;-54
2021/05/03 08:01:46;;;;;;;6.67;6.07;;;17.30;99.90;;;;;;5033563;28;20522;-54
2021/05/03 08:04:13;;;;;;;6.27;5.53;;;17.60;99.90;;;;;;5033687;28;20441;-54
2021/05/03 08:06:39;;;;;;;6.20;5.60;;;18.00;99.90;;;;;;5033184;28;20494;-54
2021/05/03 08:09:06;;;;;;;6.70;6.00;;;18.60;99.90;;;;;;5033586;28;20675;-54
2021/05/03 08:11:33;;;;;;;6.40;5.80;;;18.70;99.90;;;;;;5033235;28;20448;-54
2021/05/03 08:14:01;;;;;;;6.30;5.70;;;19.30;99.90;;;;;;5033393;28;20449;-53
2021/05/03 08:16:29;;;;;;;6.53;5.80;;;19.50;99.90;;;;;;5032880;28;20456;-54
2021/05/03 08:18:56;;;;;;;7.17;6.10;;;19.70;99.90;;;;;;5033703;28;20449;-54
2021/05/03 08:21:22;;;;;;;6.00;5.50;;;19.90;97.80;;;;;;5033576;28;20848;-54
2021/05/03 08:23:49;;;;;;;6.83;6.13;;;19.80;97.30;;;;;;5034013;28;20452;-54
2021/05/03 08:26:16;;;;;;;6.50;5.90;;;19.40;99.80;;;;;;5032557;28;20485;-54
2021/05/03 08:28:47;;;;;;;6.93;6.10;;;18.20;98.00;;;;;;5033254;28;20445;-54
2021/05/03 08:31:14;;;;;;;6.40;5.80;;;17.50;98.00;;;;;;5033284;28;20459;-54
2021/05/03 08:33:40;;;;;;;7.00;6.20;;;18.00;99.20;;;;;;5033247;28;20942;-53
2021/05/03 08:36:07;;;;;;;7.97;6.30;;;18.40;99.90;;;;;;5032789;28;20515;-54
2021/05/03 08:38:34;;;;;;;8.73;6.37;;;17.70;99.70;;;;;;5032356;28;20457;-54
2021/05/03 08:41:02;;;;;;;7.50;6.10;;;17.00;99.70;;;;;;5033524;28;20949;-53
2021/05/03 08:43:30;;;;;;;6.30;5.67;;;15.70;99.60;;;;;;5032794;28;20977;-53
2021/05/03 08:45:58;;;;;;;7.00;5.90;;;15.10;99.70;;;;;;5032377;28;20487;-53
2021/05/03 08:48:31;;;;;;;6.60;5.73;;;15.40;98.30;;;;;;5032793;28;20456;-53
2021/05/03 08:51:05;;;;;;;7.97;5.97;;;14.70;99.30;;;;;;5033051;28;20453;-53
2021/05/03 08:53:34;;;;;;;6.40;5.80;;;14.00;99.90;;;;;;5033005;28;20622;-53
2021/05/03 08:56:01;;;;;;;6.10;5.50;;;13.80;99.90;;;;;;5032236;28;20590;-53
2021/05/03 08:58:28;;;;;;;6.17;5.57;;;14.00;99.90;;;;;;5033019;28;20452;-53
2021/05/03 09:00:55;;;;;;;7.50;5.57;;;14.00;99.90;;;;;;5032774;28;20464;-52
2021/05/03 09:03:24;;;;;;;7.60;5.67;;;13.80;99.90;;;;;;5032915;28;20452;-53
2021/05/03 09:05:50;;;;;;;6.87;5.93;;;13.80;99.90;;;;;;5032405;28;20485;-52
2021/05/03 09:08:24;;;;;;;5.90;5.30;;;13.90;99.90;;;;;;5032326;28;20511;-52
2021/05/03 09:10:53;;;;;;;7.33;5.63;;;13.60;99.90;;;;;;5032423;28;20942;-52
2021/05/03 09:13:28;;;;;;;7.70;6.37;;;13.40;99.90;;;;;;5032653;28;20514;-52
2021/05/03 09:16:13;;;;;;;5.93;5.33;;;13.50;99.90;;;;;;5030896;23;20936;-47
2021/05/03 09:18:41;;;;;;;6.70;5.60;;;12.90;99.90;;;;;;4992906;28;20944;-47
2021/05/03 09:21:17;;;;;;;7.53;6.73;;;12.60;99.90;;;;;;4993171;28;20517;-47
2021/05/03 09:24:01;;;;;;;10.03;6.80;;;11.90;99.90;;;;;;4992709;28;21054;-47
2021/05/03 09:26:40;;;;;;;7.70;6.77;;;11.10;99.90;;;;;;5009183;28;20485;-48
2021/05/03 09:29:44;;;;;;;8.00;6.90;;;10.90;99.90;;;;;;5012380;28;20456;-48
2021/05/03 09:32:13;;;;;;;8.67;7.50;;;11.00;99.90;;;;;;4951845;29;20444;-47
2021/05/03 09:34:42;;;;;;;10.17;8.40;;;11.40;99.90;;;;;;4951305;28;20464;-47
2021/05/03 09:37:38;;;;;;;10.33;7.50;;;11.30;99.90;;;;;;4982463;28;20449;-47
2021/05/03 09:40:11;;;;;;;9.43;7.27;;;11.00;99.90;;;;;;5011040;28;20453;-48
2021/05/03 09:42:50;;;;;;;11.30;7.43;;;11.00;99.90;;;;;;5012200;28;20955;-47
2021/05/03 09:45:18;;;;;;;8.00;7.10;;;11.50;99.90;;;;;;5011978;28;20900;-48
2021/05/03 09:47:46;;;;;;;10.30;7.17;;;11.60;99.90;;;;;;5012209;28;20503;-49
2021/05/03 09:50:15;;;;;;;7.40;6.53;;;12.30;99.90;;;;;;5011980;28;20462;-47
2021/05/03 09:53:04;;;;;;;7.83;6.20;;;13.90;99.90;;;;;;5012067;28;20827;-49
2021/05/03 09:55:33;;;;;;;6.50;5.70;;;14.70;99.90;;;;;;5011464;28;20482;-48
2021/05/03 09:58:14;;;;;;;7.83;6.93;;;15.50;99.90;;;;;;5011892;28;20457;-49
2021/05/03 10:00:42;;;;;;;6.53;5.83;;;15.10;99.90;;;;;;5011705;28;20449;-48
2021/05/03 10:03:29;;;;;;;5.83;5.23;;;15.10;99.90;;;;;;5012112;28;20454;-47
2021/05/03 10:05:57;;;;;;;6.50;5.80;;;14.80;99.90;;;;;;5011619;28;20489;-48
2021/05/03 10:08:24;;;;;;;7.00;6.30;;;14.10;99.90;;;;;;5011810;28;20484;-48
2021/05/03 10:10:52;;;;;;;6.90;6.17;;;14.40;99.90;;;;;;5011675;28;20540;-48
2021/05/03 10:13:20;;;;;;;8.63;6.07;;;15.20;99.90;;;;;;5011135;28;20446;-49
2021/05/03 10:15:47;;;;;;;6.20;5.60;;;15.10;99.90;;;;;;5011182;28;20507;-48
2021/05/03 10:18:17;;;;;;;6.60;5.70;;;15.10;99.90;;;;;;5011915;28;20449;-48
2021/05/03 10:20:45;;;;;;;7.40;6.67;;;15.00;99.90;;;;;;5011736;28;20457;-48
2021/05/03 10:23:14;;;;;;;8.90;7.10;;;15.30;99.90;;;;;;5011434;28;20504;-48
2021/05/03 10:25:41;;;;;;;10.33;7.70;;;15.20;99.90;;;;;;5009995;28;20497;-49
2021/05/03 10:28:08;;;;;;;8.60;7.40;;;15.00;99.90;;;;;;5010728;28;20500;-48
2021/05/03 10:30:41;;;;;;;8.07;7.27;;;14.50;99.90;;;;;;5010874;28;20456;-48
2021/05/03 10:33:09;;;;;;;8.97;7.60;;;14.80;99.90;;;;;;5011508;28;20492;-47
2021/05/03 10:35:39;;;;;;;7.13;6.40;;;13.90;99.90;;;;;;5010641;28;20473;-47
2021/05/03 10:38:27;;;;;;;8.67;7.10;;;14.40;99.90;;;;;;5011385;28;20503;-47
2021/05/03 10:40:55;;;;;;;7.73;6.93;;;15.30;99.90;;;;;;5011094;28;20449;-48
2021/05/03 10:43:28;;;;;;;8.10;6.67;;;15.00;99.90;;;;;;5011460;28;20947;-48
2021/05/03 10:48:53;;;;;;;7.43;6.60;;;14.70;99.90;;;;;;5011551;28;20419;-48
2021/05/03 10:51:41;;;;;;;7.30;6.53;;;14.30;99.90;;;;;;5011645;28;20474;-47
2021/05/03 10:54:37;;;;;;;7.93;7.10;;;14.10;99.90;;;;;;5011404;28;20475;-47
2021/05/03 10:57:06;;;;;;;8.43;7.30;;;13.90;99.90;;;;;;5011397;28;20457;-48
2021/05/03 10:59:47;;;;;;;8.03;6.60;;;13.90;99.90;;;;;;5011336;28;20869;-48
2021/05/03 11:02:16;;;;;;;8.90;7.00;;;13.50;99.90;;;;;;5011432;28;20453;-48
2021/05/03 11:05:22;;;;;;;10.30;7.70;;;13.90;99.90;;;;;;5010900;28;20453;-48
2021/05/03 11:08:28;;;;;;;9.70;8.00;;;13.70;99.90;;;;;;5011308;28;20500;-48
2021/05/03 11:11:09;;;;;;;8.20;7.20;;;14.30;99.90;;;;;;5011215;28;20552;-47
2021/05/03 11:14:09;;;;;;;9.23;7.43;;;14.40;99.90;;;;;;5011510;28;20476;-48
2021/05/03 11:17:07;;;;;;;8.93;7.67;;;14.70;99.90;;;;;;5010629;28;20477;-48
2021/05/03 11:20:00;;;;;;;9.87;7.53;;;14.50;99.90;;;;;;5011060;28;20453;-47
2021/05/03 11:22:40;;;;;;;8.40;7.50;;;14.80;99.90;;;;;;5011140;28;20834;-47
2021/05/03 11:25:11;;;;;;;7.27;6.37;;;15.20;99.90;;;;;;5010766;28;20489;-48
2021/05/03 11:27:44;;;;;;;8.13;6.80;;;14.50;99.90;;;;;;5010932;28;20488;-48
2021/05/03 11:30:14;;;;;;;6.13;5.53;;;14.40;99.90;;;;;;5010969;28;20480;-47
2021/05/03 11:32:41;;;;;;;7.47;6.67;;;14.30;99.90;;;;;;5011241;28;20457;-48
2021/05/03 11:35:18;;;;;;;7.80;6.00;;;13.80;99.90;;;;;;5010691;28;20469;-48
2021/05/03 11:37:49;;;;;;;6.60;5.90;;;14.10;99.90;;;;;;5011423;28;20460;-47
2021/05/03 11:40:27;;;;;;;7.87;6.03;;;14.40;99.90;;;;;;5014320;28;20453;-47
2021/05/03 11:45:47;;;;;;;6.70;6.03;;;14.10;99.90;;;;;;5013844;28;20473;-48
2021/05/03 11:48:14;;;;;;;7.47;6.77;;;14.40;99.90;;;;;;5014346;28;20453;-49
2021/05/03 11:50:40;;;;;;;6.90;6.20;;;14.70;99.90;;;;;;5014231;28;20457;-47
2021/05/03 11:53:07;;;;;;;10.67;6.60;;;14.60;99.90;;;;;;5014399;28;20449;-48
2021/05/03 11:55:33;;;;;;;6.60;5.90;;;14.60;99.90;;;;;;5013887;28;20493;-48
2021/05/03 11:58:00;;;;;;;6.17;5.57;;;14.40;99.90;;;;;;5014277;28;20453;-48
2021/05/03 12:00:27;;;;;;;6.40;5.67;;;14.10;99.90;;;;;;5014059;28;20460;-48
2021/05/03 12:03:06;;;;;;;8.20;5.97;;;14.30;99.90;;;;;;5014066;28;20449;-47
2021/05/03 12:05:34;;;;;;;7.03;6.03;;;13.90;99.90;;;;;;5013428;28;20480;-48
2021/05/03 12:08:12;;;;;;;6.53;5.83;;;13.70;99.90;;;;;;4994606;28;20870;-48
2021/05/03 12:10:39;;;;;;;7.70;6.90;;;13.50;99.90;;;;;;4994487;28;20450;-48
2021/05/03 12:13:12;;;;;;;8.67;6.17;;;13.60;99.90;;;;;;4994316;28;20447;-47
2021/05/03 12:15:39;;;;;;;7.40;6.40;;;13.70;99.90;;;;;;4994386;28;20478;-48
2021/05/03 12:18:06;;;;;;;7.47;6.07;;;13.40;99.90;;;;;;5013737;28;20515;-46
2021/05/03 12:20:34;;;;;;;6.23;5.60;;;13.20;99.90;;;;;;5013631;28;20449;-48
2021/05/03 12:23:03;;;;;;;6.70;5.87;;;13.40;99.90;;;;;;5013377;28;21005;-48
2021/05/03 12:25:37;;;;;;;8.23;5.80;;;13.80;99.90;;;;;;5013149;28;20481;-48
2021/05/03 12:28:08;;;;;;;6.57;5.93;;;13.80;99.90;;;;;;5002853;28;21076;-47
2021/05/03 12:30:35;;;;;;;7.63;6.70;;;14.00;99.90;;;;;;5012647;28;20461;-48
2021/05/03 12:33:09;;;;;;;6.17;5.57;;;13.50;99.90;;;;;;5013088;28;20445;-48
2021/05/03 12:35:35;;;;;;;11.10;5.90;;;13.70;99.90;;;;;;5012521;28;20465;-48
2021/05/03 12:38:17;;;;;;;7.37;5.50;;;13.50;99.90;;;;;;5013149;28;20500;-48
2021/05/03 12:40:43;;;;;;;6.03;5.43;;;13.90;99.90;;;;;;5013337;28;20536;-48
2021/05/03 12:43:12;;;;;;;6.30;5.67;;;13.80;99.90;;;;;;5013315;28;20454;-48
2021/05/03 12:45:52;;;;;;;6.03;5.30;;;13.80;99.90;;;;;;5012994;28;20576;-47
2021/05/03 12:48:28;;;;;;;6.27;5.20;;;13.80;99.90;;;;;;4993748;28;20454;-47
2021/05/03 12:54:07;;;;;;;5.23;4.73;;;13.80;99.60;;;;;;4958195;28;20454;-47
2021/05/03 12:56:39;;;;;;;5.80;5.23;;;13.90;99.60;;;;;;4999648;28;20476;-48
2021/05/03 12:59:19;;;;;;;6.00;5.40;;;13.80;99.90;;;;;;5012882;28;20504;-48
2021/05/03 13:01:51;;;;;;;5.30;4.83;;;13.60;99.90;;;;;;5012870;28;20449;-48
2021/05/03 13:04:42;;;;;;;5.00;4.50;;;13.70;99.90;;;;;;5013190;28;20446;-48
2021/05/03 13:29:39;;;;;;;6.20;5.50;;;13.80;99.90;;;;;;5012732;28;20954;-48
2021/05/03 13:32:06;;;;;;;7.33;5.50;;;13.90;98.60;;;;;;5012807;28;20797;-47
2021/05/03 13:34:35;;;;;;;5.83;5.33;;;13.80;98.50;;;;;;5012353;28;20446;-47
2021/05/03 13:37:02;;;;;;;5.83;4.90;;;13.70;99.90;;;;;;5009192;28;20450;-47
2021/05/03 13:39:30;;;;;;;5.60;5.00;;;13.60;99.90;;;;;;5004046;28;20442;-47